createdAt,value
2023-02-02T00:01:29.049Z,9.32
2023-02-02T00:03:56.937Z,9.32
2023-02-02T00:06:25.407Z,9.35
2023-02-02T00:08:52.942Z,9.33
2023-02-02T00:11:20.224Z,9.33
2023-02-02T00:13:47.203Z,9.39
2023-02-02T00:16:29.208Z,9.43
2023-02-02T00:19:01.740Z,9.47
2023-02-02T00:21:29.871Z,9.43
2023-02-02T00:23:56.967Z,9.38
2023-02-02T00:26:24.362Z,9.38
2023-02-02T00:28:51.088Z,9.43
2023-02-02T00:31:17.768Z,9.32
2023-02-02T00:33:48.860Z,9.40
2023-02-02T00:36:16.861Z,9.43
2023-02-02T00:38:43.885Z,9.49
2023-02-02T00:41:10.678Z,9.39
2023-02-02T00:43:37.317Z,9.44
2023-02-02T00:46:06.023Z,9.44
2023-02-02T00:48:32.797Z,9.42
2023-02-02T00:50:59.588Z,9.41
2023-02-02T00:53:26.222Z,9.43
2023-02-02T00:55:52.902Z,9.39
2023-02-02T00:58:19.667Z,9.48
2023-02-02T01:00:47.504Z,9.38
2023-02-02T01:03:14.208Z,9.43
2023-02-02T01:05:40.990Z,9.45
2023-02-02T01:08:08.140Z,9.47
2023-02-02T01:10:35.204Z,9.44
2023-02-02T01:13:02.353Z,9.45
2023-02-02T01:15:30.537Z,9.47
2023-02-02T01:17:57.538Z,9.50
2023-02-02T01:20:24.642Z,9.50
2023-02-02T01:22:52.355Z,9.47
2023-02-02T01:25:19.090Z,9.42
2023-02-02T01:27:45.884Z,9.47
2023-02-02T01:30:12.895Z,9.51
2023-02-02T01:32:39.552Z,9.48
2023-02-02T01:35:07.016Z,9.39
2023-02-02T01:37:33.674Z,9.36
2023-02-02T01:40:00.343Z,9.48
2023-02-02T01:42:27.100Z,9.49
2023-02-02T01:45:16.909Z,9.43
2023-02-02T01:47:49.036Z,9.40
2023-02-02T01:50:17.978Z,9.34
2023-02-02T01:52:48.483Z,9.40
2023-02-02T01:55:18.977Z,9.40
2023-02-02T01:57:51.298Z,9.41
2023-02-02T02:00:24.848Z,9.44
2023-02-02T02:02:55.999Z,9.32
2023-02-02T02:05:34.454Z,9.38
2023-02-02T02:08:10.398Z,9.42
2023-02-02T02:10:37.315Z,9.42
2023-02-02T02:13:05.623Z,9.37
2023-02-02T02:15:58.850Z,9.35
2023-02-02T02:18:33.496Z,9.34
2023-02-02T02:21:43.941Z,9.41
2023-02-02T02:24:44.689Z,9.41
2023-02-02T02:27:24.421Z,9.38
2023-02-02T02:30:24.714Z,9.33
2023-02-02T02:32:55.633Z,9.39
2023-02-02T02:35:52.199Z,9.44
2023-02-02T02:38:40.995Z,9.41
2023-02-02T02:41:17.144Z,9.40
2023-02-02T02:43:51.127Z,9.30
2023-02-02T02:46:18.089Z,9.35
2023-02-02T02:48:46.210Z,9.37
2023-02-02T02:51:41.911Z,9.31
2023-02-02T02:54:11.082Z,9.38
2023-02-02T02:57:02.495Z,9.34
2023-02-02T02:59:55.964Z,9.27
2023-02-02T03:02:35.037Z,9.33
2023-02-02T03:05:31.735Z,9.30
2023-02-02T03:08:23.832Z,9.34
2023-02-02T03:10:51.999Z,9.29
2023-02-02T03:13:18.901Z,9.34
2023-02-02T03:15:46.849Z,9.34
2023-02-02T03:18:17.191Z,9.42
2023-02-02T03:20:45.307Z,9.35
2023-02-02T03:23:12.631Z,9.33
2023-02-02T03:25:39.595Z,9.33
2023-02-02T03:28:07.535Z,9.22
2023-02-02T03:30:34.600Z,9.29
2023-02-02T03:33:01.291Z,9.33
2023-02-02T03:35:28.127Z,9.30
2023-02-02T03:37:56.071Z,9.32
2023-02-02T03:40:23.194Z,9.30
2023-02-02T03:42:49.857Z,9.29
2023-02-02T03:45:16.425Z,9.28
2023-02-02T03:47:43.222Z,9.29
2023-02-02T03:50:10.757Z,9.29
2023-02-02T03:52:37.431Z,9.23
2023-02-02T03:55:05.498Z,9.27
2023-02-02T03:57:31.970Z,9.36
2023-02-02T03:59:58.730Z,9.35
2023-02-02T04:02:25.290Z,9.40
2023-02-02T04:04:52.054Z,9.32
2023-02-02T04:07:18.898Z,9.37
2023-02-02T04:09:45.456Z,9.30
2023-02-02T04:12:12.044Z,9.32
2023-02-02T04:14:38.764Z,9.41
2023-02-02T04:17:05.424Z,9.42
2023-02-02T04:19:32.150Z,9.39
2023-02-02T04:21:58.819Z,9.37
2023-02-02T04:24:25.503Z,9.37
2023-02-02T04:26:52.499Z,9.34
2023-02-02T04:29:19.351Z,9.33
2023-02-02T04:31:47.988Z,9.37
2023-02-02T04:34:14.704Z,9.37
2023-02-02T04:36:41.251Z,9.29
2023-02-02T04:39:11.640Z,9.30
2023-02-02T04:41:38.296Z,9.36
2023-02-02T04:44:06.797Z,9.29
2023-02-02T04:46:33.444Z,9.34
2023-02-02T04:48:59.980Z,9.34
2023-02-02T04:51:27.687Z,9.33
2023-02-02T04:53:54.257Z,9.25
2023-02-02T04:56:20.804Z,9.39
2023-02-02T04:58:47.408Z,9.33
2023-02-02T05:01:19.779Z,9.39
2023-02-02T05:03:47.297Z,9.30
2023-02-02T05:06:15.986Z,9.38
2023-02-02T05:08:43.473Z,9.40
2023-02-02T05:11:11.732Z,9.37
2023-02-02T05:13:38.433Z,9.40
2023-02-02T05:16:05.557Z,9.38
2023-02-02T05:18:32.251Z,9.46
2023-02-02T05:21:03.103Z,9.46
2023-02-02T05:23:30.593Z,9.48
2023-02-02T05:25:57.951Z,9.44
2023-02-02T05:28:25.330Z,9.43
2023-02-02T05:30:52.351Z,9.48
2023-02-02T05:33:19.807Z,9.43
2023-02-02T05:35:47.994Z,9.52
2023-02-02T05:38:16.375Z,9.40
2023-02-02T05:40:43.171Z,9.41
2023-02-02T05:43:09.802Z,9.49
2023-02-02T05:45:36.461Z,9.51
2023-02-02T05:48:03.143Z,9.47
2023-02-02T05:50:29.624Z,9.45
2023-02-02T05:53:03.949Z,9.47
2023-02-02T05:55:30.570Z,9.45
2023-02-02T05:57:59.439Z,9.47
2023-02-02T06:00:26.146Z,9.38
2023-02-02T06:02:52.735Z,9.34
2023-02-02T06:05:19.476Z,9.36
2023-02-02T06:07:46.068Z,9.47
2023-02-02T06:10:12.695Z,9.45
2023-02-02T06:12:39.224Z,9.36
2023-02-02T06:15:06.455Z,9.26
2023-02-02T06:17:33.195Z,9.24
2023-02-02T06:19:59.903Z,9.23
2023-02-02T06:22:28.673Z,9.21
2023-02-02T06:24:55.257Z,9.12
2023-02-02T06:27:23.762Z,9.13
2023-02-02T06:29:50.510Z,9.16
2023-02-02T06:32:17.126Z,9.09
2023-02-02T06:34:43.780Z,9.18
2023-02-02T06:37:10.588Z,9.13
2023-02-02T06:39:37.334Z,9.08
2023-02-02T06:42:20.081Z,9.07
2023-02-02T06:44:47.728Z,9.04
2023-02-02T06:47:14.279Z,8.97
2023-02-02T06:49:42.244Z,8.93
2023-02-02T06:52:08.822Z,9.12
2023-02-02T06:54:35.427Z,9.20
2023-02-02T06:57:01.978Z,9.16
2023-02-02T06:59:28.704Z,9.11
2023-02-02T07:01:57.800Z,9.09
2023-02-02T07:04:24.426Z,9.17
2023-02-02T07:06:51.090Z,9.14
2023-02-02T07:09:17.705Z,9.19
2023-02-02T07:11:45.425Z,9.23
2023-02-02T07:14:12.825Z,9.22
2023-02-02T07:16:39.449Z,9.17
2023-02-02T07:19:06.161Z,9.17
2023-02-02T07:21:36.492Z,9.24
2023-02-02T07:24:04.834Z,9.22
2023-02-02T07:26:31.541Z,9.14
2023-02-02T07:28:58.513Z,9.13
2023-02-02T07:31:27.764Z,9.10
2023-02-02T07:33:54.535Z,9.02
2023-02-02T07:36:24.117Z,8.98
2023-02-02T07:38:54.291Z,9.00
2023-02-02T07:41:22.333Z,9.02
2023-02-02T07:43:49.963Z,9.12
2023-02-02T07:46:18.663Z,9.14
2023-02-02T07:48:45.787Z,9.13
2023-02-02T07:51:14.866Z,9.07
2023-02-02T07:53:46.218Z,9.20
2023-02-02T07:56:18.469Z,9.19
2023-02-02T07:58:45.794Z,9.19
2023-02-02T08:01:14.694Z,9.20
2023-02-02T08:03:42.910Z,9.15
2023-02-02T08:06:14.212Z,9.24
2023-02-02T08:08:41.198Z,9.23
2023-02-02T08:11:10.961Z,9.27
2023-02-02T08:13:38.018Z,9.30
2023-02-02T08:16:05.683Z,9.36
2023-02-02T08:18:36.352Z,9.43
2023-02-02T08:21:06.307Z,9.41
2023-02-02T08:23:33.060Z,9.47
2023-02-02T08:26:12.854Z,9.54
2023-02-02T08:28:41.354Z,9.42
2023-02-02T08:31:14.852Z,9.48
2023-02-02T08:33:41.749Z,9.57
2023-02-02T08:36:12.631Z,9.67
2023-02-02T08:38:39.787Z,9.71
2023-02-02T08:41:12.639Z,9.67
2023-02-02T08:43:39.616Z,9.73
2023-02-02T08:46:07.529Z,9.73
2023-02-02T08:48:35.240Z,9.74
2023-02-02T08:51:02.586Z,9.81
2023-02-02T08:53:30.022Z,9.85
2023-02-02T08:56:04.354Z,9.77
2023-02-02T08:58:31.694Z,9.79
2023-02-02T09:01:13.312Z,9.87
2023-02-02T09:03:40.865Z,10.04
2023-02-02T09:06:09.655Z,10.06
2023-02-02T09:08:36.919Z,9.93
2023-02-02T09:11:09.259Z,9.92
2023-02-02T09:13:38.020Z,10.02
2023-02-02T09:16:07.457Z,10.02
2023-02-02T09:18:34.491Z,10.06
2023-02-02T09:21:03.778Z,9.95
2023-02-02T09:23:32.153Z,9.82
2023-02-02T09:26:09.527Z,10.07
2023-02-02T09:28:39.289Z,10.00
2023-02-02T09:31:06.966Z,10.07
2023-02-02T09:33:34.340Z,10.21
2023-02-02T09:36:06.141Z,10.33
2023-02-02T09:38:33.062Z,10.41
2023-02-02T09:41:01.115Z,10.43
2023-02-02T09:43:50.733Z,10.29
2023-02-02T09:47:02.779Z,10.30
2023-02-02T09:49:49.920Z,10.33
2023-02-02T09:52:24.423Z,10.27
2023-02-02T09:54:56.262Z,10.19
2023-02-02T09:57:27.140Z,10.38
2023-02-02T09:59:54.585Z,10.32
2023-02-02T10:02:23.335Z,10.37
2023-02-02T10:05:00.572Z,10.33
2023-02-02T10:07:34.728Z,10.47
2023-02-02T10:10:18.093Z,10.44
2023-02-02T10:12:56.541Z,10.40
2023-02-02T10:15:38.508Z,10.55
2023-02-02T10:18:24.491Z,10.59
2023-02-02T10:20:56.115Z,10.67
2023-02-02T10:23:34.023Z,10.48
2023-02-02T10:26:22.519Z,10.80
2023-02-02T10:29:16.510Z,10.86
2023-02-02T10:31:57.014Z,10.87
2023-02-02T10:34:37.736Z,10.87
2023-02-02T10:37:42.378Z,10.96
2023-02-02T10:40:43.435Z,10.73
2023-02-02T10:43:38.477Z,10.74
2023-02-02T10:46:06.048Z,10.88
2023-02-02T10:48:38.203Z,10.78
2023-02-02T10:51:14.955Z,10.82
2023-02-02T10:53:51.426Z,10.67
2023-02-02T10:56:24.150Z,10.69
2023-02-02T10:58:57.199Z,10.81
2023-02-02T11:01:24.091Z,10.96
2023-02-02T11:04:11.328Z,10.70
2023-02-02T11:06:50.434Z,10.78
2023-02-02T11:09:28.573Z,10.86
2023-02-02T11:12:16.626Z,11.09
2023-02-02T11:14:52.096Z,10.94
2023-02-02T11:17:26.510Z,10.89
2023-02-02T11:19:55.615Z,10.92
2023-02-02T11:22:33.967Z,10.92
2023-02-02T11:25:27.011Z,10.83
2023-02-02T11:27:53.599Z,10.88
2023-02-02T11:30:33.261Z,10.97
2023-02-02T11:33:00.480Z,11.14
2023-02-02T11:35:29.790Z,10.89
2023-02-02T11:37:59.564Z,11.08
2023-02-02T11:40:28.470Z,11.13
2023-02-02T11:42:59.323Z,11.13
2023-02-02T11:45:41.211Z,11.06
2023-02-02T11:48:16.732Z,11.05
2023-02-02T11:50:53.691Z,11.19
2023-02-02T11:53:24.986Z,11.05
2023-02-02T11:55:53.264Z,11.06
2023-02-02T11:58:43.413Z,11.08
2023-02-02T12:01:24.671Z,11.04
2023-02-02T12:03:53.889Z,10.96
2023-02-02T12:06:39.580Z,10.84
2023-02-02T12:09:15.282Z,10.83
2023-02-02T12:12:04.365Z,10.86
2023-02-02T12:14:39.849Z,10.90
2023-02-02T12:17:38.863Z,10.94
2023-02-02T12:20:45.280Z,10.85
2023-02-02T12:23:58.346Z,10.97
2023-02-02T12:26:37.927Z,10.98
2023-02-02T12:29:14.585Z,11.13
2023-02-02T12:32:06.351Z,11.07
2023-02-02T12:35:01.923Z,11.17
2023-02-02T12:37:52.853Z,11.00
2023-02-02T12:40:41.537Z,10.93
2023-02-02T12:43:31.384Z,10.86
2023-02-02T12:46:20.746Z,10.54
2023-02-02T12:49:19.115Z,10.44
2023-02-02T12:51:46.225Z,10.24
2023-02-02T12:54:46.114Z,10.27
2023-02-02T12:57:38.129Z,10.15
2023-02-02T13:00:39.696Z,10.03
2023-02-02T13:03:29.971Z,10.07
2023-02-02T13:06:21.460Z,9.91
2023-02-02T13:08:53.312Z,9.95
2023-02-02T13:11:32.882Z,9.88
2023-02-02T13:14:08.381Z,10.06
2023-02-02T13:16:38.320Z,10.18
2023-02-02T13:19:10.357Z,10.19
2023-02-02T13:21:39.511Z,10.22
2023-02-02T13:24:08.550Z,10.21
2023-02-02T13:26:41.291Z,10.31
2023-02-02T13:29:10.924Z,10.37
2023-02-02T13:31:47.273Z,10.47
2023-02-02T13:34:27.795Z,10.42
2023-02-02T13:36:59.462Z,10.54
2023-02-02T13:39:44.149Z,10.62
2023-02-02T13:42:38.114Z,10.71
2023-02-02T13:45:55.793Z,10.57
2023-02-02T13:48:33.922Z,10.59
2023-02-02T13:51:06.498Z,10.71
2023-02-02T13:53:54.929Z,10.66
2023-02-02T13:56:27.695Z,10.38
2023-02-02T13:59:00.889Z,10.56
2023-02-02T14:01:27.933Z,10.56
2023-02-02T14:03:57.290Z,10.26
2023-02-02T14:06:26.419Z,9.96
2023-02-02T14:09:03.841Z,9.89
2023-02-02T14:11:42.390Z,9.79
2023-02-02T14:14:34.590Z,9.89
2023-02-02T14:17:13.401Z,9.89
2023-02-02T14:20:06.627Z,10.01
2023-02-02T14:22:44.651Z,9.99
2023-02-02T14:25:33.700Z,9.88
2023-02-02T14:28:03.863Z,9.84
2023-02-02T14:30:38.438Z,9.79
2023-02-02T14:33:26.208Z,9.73
2023-02-02T14:36:01.642Z,9.79
2023-02-02T14:38:52.864Z,9.69
2023-02-02T14:42:07.330Z,9.52
2023-02-02T14:44:37.505Z,9.70
2023-02-02T14:47:04.639Z,9.56
2023-02-02T14:49:35.525Z,9.56
2023-02-02T14:52:05.159Z,9.61
2023-02-02T14:54:39.644Z,9.42
2023-02-02T14:57:28.085Z,9.46
2023-02-02T14:59:55.993Z,9.52
2023-02-02T15:02:37.763Z,9.48
2023-02-02T15:05:23.399Z,9.54
2023-02-02T15:07:53.212Z,9.49
2023-02-02T15:10:48.162Z,9.51
2023-02-02T15:13:19.531Z,9.51
2023-02-02T15:15:49.805Z,9.56
2023-02-02T15:18:24.785Z,9.49
2023-02-02T15:20:56.839Z,9.56
2023-02-02T15:23:30.664Z,9.47
2023-02-02T15:26:05.005Z,9.46
2023-02-02T15:28:47.323Z,9.43
2023-02-02T15:31:39.572Z,9.50
2023-02-02T15:34:34.053Z,9.49
2023-02-02T15:37:05.958Z,9.44
2023-02-02T15:39:41.710Z,9.48
2023-02-02T15:42:53.194Z,9.48
2023-02-02T15:45:33.305Z,9.54
2023-02-02T15:48:05.538Z,9.58
2023-02-02T15:50:32.557Z,9.59
2023-02-02T15:52:59.253Z,9.59
2023-02-02T15:55:34.684Z,9.63
2023-02-02T15:58:02.640Z,9.64
2023-02-02T16:00:35.789Z,9.66
2023-02-02T16:03:05.356Z,9.69
2023-02-02T16:05:31.831Z,9.65
2023-02-02T16:08:05.646Z,9.66
2023-02-02T16:10:34.232Z,9.68
2023-02-02T16:13:01.837Z,9.74
2023-02-02T16:15:31.767Z,9.77
2023-02-02T16:18:04.506Z,9.74
2023-02-02T16:20:37.170Z,9.75
2023-02-02T16:23:09.973Z,9.73
2023-02-02T16:25:48.333Z,9.75
2023-02-02T16:28:18.942Z,9.74
2023-02-02T16:30:48.517Z,9.76
2023-02-02T16:33:44.108Z,9.77
2023-02-02T16:36:25.761Z,9.82
2023-02-02T16:38:54.965Z,9.82
2023-02-02T16:41:36.013Z,9.75
2023-02-02T16:44:30.599Z,9.79
2023-02-02T16:47:00.225Z,9.84
2023-02-02T16:49:30.269Z,9.80
2023-02-02T16:52:13.610Z,9.88
2023-02-02T16:54:45.463Z,9.84
2023-02-02T16:57:20.849Z,9.82
2023-02-02T16:59:50.951Z,9.86
2023-02-02T17:02:26.320Z,9.89
2023-02-02T17:05:00.197Z,9.88
2023-02-02T17:07:28.448Z,9.89
2023-02-02T17:10:22.669Z,9.95
2023-02-02T17:12:49.421Z,9.99
2023-02-02T17:15:18.883Z,10.00
2023-02-02T17:17:48.730Z,9.91
2023-02-02T17:20:16.909Z,9.99
2023-02-02T17:22:47.115Z,10.03
2023-02-02T17:25:37.073Z,10.03
2023-02-02T17:28:07.633Z,9.99
2023-02-02T17:30:34.545Z,10.00
2023-02-02T17:33:01.237Z,10.01
2023-02-02T17:35:34.726Z,10.11
2023-02-02T17:38:06.964Z,10.07
2023-02-02T17:40:34.027Z,10.08
2023-02-02T17:43:02.185Z,10.15
2023-02-02T17:45:33.858Z,10.20
2023-02-02T17:48:01.915Z,10.17
2023-02-02T17:50:30.702Z,10.21
2023-02-02T17:52:57.918Z,10.22
2023-02-02T17:55:25.806Z,10.20
2023-02-02T17:57:53.821Z,10.21
2023-02-02T18:00:24.030Z,10.22
2023-02-02T18:02:56.584Z,10.25
2023-02-02T18:05:23.944Z,10.26
2023-02-02T18:07:50.750Z,10.33
2023-02-02T18:10:19.976Z,10.31
2023-02-02T18:12:46.562Z,10.33
2023-02-02T18:15:14.779Z,10.28
2023-02-02T18:17:42.092Z,10.27
2023-02-02T18:20:11.965Z,10.22
2023-02-02T18:22:38.635Z,10.24
2023-02-02T18:25:06.144Z,10.28
2023-02-02T18:27:32.796Z,10.33
2023-02-02T18:29:59.473Z,10.36
2023-02-02T18:32:26.373Z,10.34
2023-02-02T18:34:55.792Z,10.39
2023-02-02T18:37:25.716Z,10.37
2023-02-02T18:39:52.605Z,10.38
2023-02-02T18:42:21.673Z,10.37
2023-02-02T18:44:48.257Z,10.43
2023-02-02T18:47:14.885Z,10.49
2023-02-02T18:49:41.641Z,10.55
2023-02-02T18:52:08.163Z,10.50
2023-02-02T18:54:35.808Z,10.43
2023-02-02T18:57:02.405Z,10.44
2023-02-02T18:59:29.603Z,10.43
2023-02-02T19:01:56.206Z,10.44
2023-02-02T19:04:22.811Z,10.44
2023-02-02T19:07:08.230Z,10.52
2023-02-02T19:09:34.939Z,10.45
2023-02-02T19:12:02.243Z,10.41
2023-02-02T19:14:33.420Z,10.45
2023-02-02T19:17:16.563Z,10.48
2023-02-02T19:19:43.230Z,10.38
2023-02-02T19:22:20.515Z,10.34
2023-02-02T19:24:48.713Z,10.32
2023-02-02T19:27:28.639Z,10.26
2023-02-02T19:30:00.401Z,10.18
2023-02-02T19:32:33.696Z,10.09
2023-02-02T19:35:05.531Z,10.07
2023-02-02T19:37:33.102Z,10.00
2023-02-02T19:40:15.624Z,10.03
2023-02-02T19:42:49.901Z,9.99
2023-02-02T19:45:22.920Z,9.92
2023-02-02T19:47:51.122Z,9.88
2023-02-02T19:50:24.927Z,9.89
2023-02-02T19:52:54.345Z,9.84
2023-02-02T19:55:26.016Z,9.86
2023-02-02T19:57:54.328Z,9.80
2023-02-02T20:00:25.387Z,9.88
2023-02-02T20:03:00.927Z,9.84
2023-02-02T20:05:35.802Z,9.91
2023-02-02T20:08:15.834Z,10.05
2023-02-02T20:10:43.827Z,10.03
2023-02-02T20:13:15.914Z,10.14
2023-02-02T20:15:43.216Z,10.14
2023-02-02T20:18:20.973Z,10.11
2023-02-02T20:20:51.454Z,10.05
2023-02-02T20:23:31.834Z,10.05
2023-02-02T20:26:02.313Z,10.10
2023-02-02T20:28:41.589Z,10.06
2023-02-02T20:31:10.675Z,10.08
2023-02-02T20:33:37.318Z,10.14
2023-02-02T20:36:30.937Z,10.09
2023-02-02T20:39:06.853Z,10.16
2023-02-02T20:41:35.805Z,10.13
2023-02-02T20:44:02.370Z,10.17
2023-02-02T20:46:29.308Z,10.10
2023-02-02T20:48:55.887Z,10.14
2023-02-02T20:51:22.469Z,10.17
2023-02-02T20:53:49.145Z,10.18
2023-02-02T20:56:18.084Z,10.09
2023-02-02T20:58:44.692Z,10.25
2023-02-02T21:01:11.319Z,10.24
2023-02-02T21:03:37.913Z,10.20
2023-02-02T21:06:04.732Z,10.23
2023-02-02T21:08:31.588Z,10.17
2023-02-02T21:10:58.256Z,10.19
2023-02-02T21:13:25.067Z,10.22
2023-02-02T21:15:51.825Z,10.23
2023-02-02T21:18:18.719Z,10.24
2023-02-02T21:20:45.379Z,10.26
2023-02-02T21:23:12.286Z,10.26
2023-02-02T21:25:38.959Z,10.28
2023-02-02T21:28:05.549Z,10.27
2023-02-02T21:30:32.550Z,10.23
2023-02-02T21:32:59.715Z,10.27
2023-02-02T21:35:26.926Z,10.30
2023-02-02T21:37:57.425Z,10.20
2023-02-02T21:40:30.437Z,10.21
2023-02-02T21:42:59.824Z,10.17
2023-02-02T21:45:37.110Z,10.17
2023-02-02T21:48:32.922Z,10.14
2023-02-02T21:51:17.147Z,10.15
2023-02-02T21:53:43.800Z,10.15
2023-02-02T21:56:41.075Z,10.16
2023-02-02T21:59:22.873Z,10.04
2023-02-02T22:01:52.381Z,10.04
2023-02-02T22:04:20.275Z,9.94
2023-02-02T22:06:50.856Z,9.89
2023-02-02T22:09:22.793Z,9.80
2023-02-02T22:12:01.725Z,9.80
2023-02-02T22:14:42.480Z,9.86
2023-02-02T22:17:18.364Z,9.77
2023-02-02T22:19:45.065Z,9.88
2023-02-02T22:22:17.797Z,9.90
2023-02-02T22:24:47.386Z,9.92
2023-02-02T22:27:18.901Z,9.96
2023-02-02T22:29:45.624Z,9.98
2023-02-02T22:32:12.350Z,9.94
2023-02-02T22:34:38.971Z,9.97
2023-02-02T22:37:05.494Z,9.93
2023-02-02T22:39:32.136Z,10.02
2023-02-02T22:41:58.730Z,9.99
2023-02-02T22:44:25.446Z,10.04
2023-02-02T22:46:52.000Z,10.04
2023-02-02T22:49:18.629Z,10.03
2023-02-02T22:51:45.172Z,10.06
2023-02-02T22:54:11.789Z,10.07
2023-02-02T22:56:38.309Z,10.07
2023-02-02T22:59:05.010Z,10.06
2023-02-02T23:01:31.635Z,10.05
2023-02-02T23:03:58.427Z,10.05
2023-02-02T23:06:25.085Z,10.08
2023-02-02T23:08:51.735Z,10.07
2023-02-02T23:11:18.345Z,10.00
2023-02-02T23:13:45.063Z,10.05
2023-02-02T23:16:12.121Z,10.11
2023-02-02T23:18:38.743Z,10.11
2023-02-02T23:21:05.457Z,10.07
2023-02-02T23:23:33.309Z,10.03
2023-02-02T23:25:59.815Z,10.10
2023-02-02T23:28:26.444Z,10.00
2023-02-02T23:30:54.573Z,10.00
2023-02-02T23:33:21.339Z,10.00
2023-02-02T23:35:47.953Z,9.98
2023-02-02T23:38:14.692Z,10.04
2023-02-02T23:40:41.239Z,10.06
2023-02-02T23:43:07.962Z,10.11
2023-02-02T23:45:34.811Z,10.11
2023-02-02T23:48:01.610Z,10.12
2023-02-02T23:50:28.864Z,10.09
2023-02-02T23:52:56.493Z,10.08
2023-02-02T23:55:23.144Z,10.11
2023-02-02T23:57:50.072Z,10.05
